Time;durP1;ratioP1;P1;durP2;ratioP2;P2;SDS_P1;SDS_P2;PMS_P1;PMS_P2;Temp;Humidity;BMP_temperature;BMP_pressure;BME280_temperature;BME280_humidity;BME280_pressure;Samples;Min_cycle;Max_cycle;Signal;HPM_P1;HPM_P2
2023/01/19 00:02:24;;;;;;;45.97;16.40;;;2.20;99.90;;;;;;5047074;28;20478;-59
2023/01/19 00:04:51;;;;;;;31.73;13.20;;;2.20;99.90;;;;;;5045424;28;20486;-59
2023/01/19 00:07:19;;;;;;;33.43;15.33;;;2.30;99.90;;;;;;5051993;28;20504;-59
2023/01/19 00:09:45;;;;;;;33.93;11.47;;;2.20;99.90;;;;;;5071915;28;20991;-60
2023/01/19 00:12:12;;;;;;;33.30;12.47;;;2.20;99.90;;;;;;5052689;28;21205;-60
2023/01/19 00:14:39;;;;;;;43.37;17.77;;;2.20;99.90;;;;;;5074093;28;20489;-60
2023/01/19 00:17:06;;;;;;;32.83;11.70;;;2.20;99.90;;;;;;5051787;28;20848;-59
2023/01/19 00:19:33;;;;;;;39.30;17.17;;;;;;;;;;5075444;28;20485;-59
2023/01/19 00:21:59;;;;;;;36.03;15.77;;;2.10;99.90;;;;;;5054977;28;20489;-60
2023/01/19 00:24:27;;;;;;;40.70;15.23;;;2.10;99.90;;;;;;5078532;27;20479;-59
2023/01/19 00:26:54;;;;;;;39.60;15.43;;;2.10;99.90;;;;;;5065939;27;20837;-59
2023/01/19 00:29:21;;;;;;;34.73;13.80;;;2.10;99.90;;;;;;5061005;28;20484;-59
2023/01/19 00:31:47;;;;;;;30.53;11.37;;;2.20;99.90;;;;;;5052806;28;20920;-60
2023/01/19 00:34:14;;;;;;;33.43;15.27;;;2.00;99.90;;;;;;5076332;28;20474;-59
2023/01/19 00:36:41;;;;;;;37.80;15.20;;;2.10;99.90;;;;;;5050093;28;20485;-59
2023/01/19 00:39:08;;;;;;;42.70;14.37;;;2.20;99.90;;;;;;5070296;28;21053;-60
2023/01/19 00:44:21;;;;;;;32.60;11.83;;;2.10;99.90;;;;;;5071556;28;20484;-59
2023/01/19 00:46:47;;;;;;;23.90;12.70;;;2.20;99.90;;;;;;5050420;28;21287;-60
2023/01/19 00:49:14;;;;;;;26.93;12.80;;;2.20;99.90;;;;;;5076004;28;20483;-59
2023/01/19 00:51:41;;;;;;;32.10;13.23;;;2.20;99.90;;;;;;5064446;28;20494;-60
2023/01/19 00:54:09;;;;;;;28.03;13.87;;;2.10;99.90;;;;;;5073965;28;20487;-60
2023/01/19 00:56:37;;;;;;;28.23;12.47;;;2.10;99.90;;;;;;5071384;28;20484;-59
2023/01/19 00:59:04;;;;;;;27.50;14.23;;;2.10;99.90;;;;;;5078165;28;20485;-60
2023/01/19 01:01:31;;;;;;;48.03;21.23;;;2.00;99.90;;;;;;5074648;28;20894;-60
2023/01/19 01:03:58;;;;;;;37.93;15.40;;;1.90;99.90;;;;;;5076816;28;20485;-60
2023/01/19 01:06:24;;;;;;;53.17;18.77;;;1.90;99.90;;;;;;5061725;28;20481;-60
2023/01/19 01:08:51;;;;;;;29.87;13.57;;;1.90;99.90;;;;;;5059056;28;20491;-59
2023/01/19 01:11:18;;;;;;;33.10;15.37;;;;;;;;;;5061264;28;20543;-59
2023/01/19 01:13:47;;;;;;;28.53;7.13;;;1.90;99.90;;;;;;5062512;28;20486;-59
2023/01/19 01:16:15;;;;;;;39.60;20.60;;;1.80;99.90;;;;;;5074654;28;20498;-59
2023/01/19 01:18:42;;;;;;;36.77;17.10;;;1.90;99.90;;;;;;5047790;28;20486;-60
2023/01/19 01:21:09;;;;;;;37.00;14.37;;;1.90;99.90;;;;;;5067735;28;21007;-59
2023/01/19 01:23:36;;;;;;;44.50;19.30;;;1.90;99.90;;;;;;5039310;28;20818;-60
2023/01/19 01:26:03;;;;;;;31.70;13.10;;;1.90;99.90;;;;;;5068850;28;20520;-60
2023/01/19 01:28:31;;;;;;;39.13;17.40;;;-1.70;99.90;;;;;;5059645;28;20482;-58
2023/01/19 01:30:59;;;;;;;36.87;15.27;;;1.90;99.90;;;;;;5069403;28;20486;-59
2023/01/19 01:33:26;;;;;;;43.23;14.57;;;2.00;99.90;;;;;;5058083;28;20483;-59
2023/01/19 01:35:52;;;;;;;36.87;12.97;;;2.00;99.90;;;;;;5039238;28;20506;-59
2023/01/19 01:38:19;;;;;;;32.50;14.67;;;2.00;99.90;;;;;;5079182;28;20521;-60
2023/01/19 01:40:46;;;;;;;34.47;13.90;;;2.10;99.90;;;;;;5053718;28;21471;-59
2023/01/19 01:43:13;;;;;;;27.20;10.53;;;;;;;;;;5053471;28;20483;-59
2023/01/19 01:45:41;;;;;;;36.17;17.20;;;2.10;99.90;;;;;;5053248;28;20475;-59
2023/01/19 01:48:13;;;;;;;22.83;10.77;;;2.10;99.90;;;;;;5049114;28;20918;-60
2023/01/19 01:51:22;;;;;;;36.03;16.27;;;2.10;99.90;;;;;;5052198;28;20513;-59
2023/01/19 01:53:33;;;;;;;49.93;18.13;;;;;;;;;;5044237;28;20492;-59
2023/01/19 01:56:02;;;;;;;31.60;14.77;;;2.10;99.90;;;;;;5070648;28;20892;-59
2023/01/19 01:58:29;;;;;;;48.97;20.30;;;2.10;99.90;;;;;;5061465;28;21014;-60
2023/01/19 02:03:41;;;;;;;39.33;17.80;;;2.20;99.90;;;;;;4998738;28;20560;-59
2023/01/19 02:06:09;;;;;;;31.47;16.30;;;2.30;99.90;;;;;;5070780;28;20498;-59
2023/01/19 02:14:11;;;;;;;32.43;14.17;;;2.10;99.90;;;;;;5058641;28;20499;-60
2023/01/19 02:16:38;;;;;;;41.77;21.00;;;3.20;99.90;;;;;;5076291;28;20475;-60
2023/01/19 02:19:08;;;;;;;21.53;9.17;;;4.10;99.90;;;;;;5040649;28;20478;-60
2023/01/19 02:21:39;;;;;;;54.93;18.40;;;;;;;;;;5054472;28;20851;-59
2023/01/19 02:24:07;;;;;;;36.83;12.30;;;2.10;99.90;;;;;;5081524;28;20481;-60
2023/01/19 02:26:37;;;;;;;40.13;16.93;;;2.10;99.90;;;;;;5072841;28;20493;-59
2023/01/19 02:29:07;;;;;;;38.37;15.83;;;2.00;99.90;;;;;;5049866;28;20817;-59
2023/01/19 02:31:34;;;;;;;41.43;18.20;;;1.90;99.90;;;;;;5046819;28;20481;-59
2023/01/19 02:34:03;;;;;;;37.60;19.23;;;1.90;99.90;;;;;;5072841;28;20999;-59
2023/01/19 02:36:34;;;;;;;40.63;17.17;;;2.00;99.90;;;;;;5053822;28;20673;-59
2023/01/19 02:39:04;;;;;;;34.07;14.40;;;2.00;99.90;;;;;;5048051;28;20488;-59
2023/01/19 02:41:38;;;;;;;41.40;18.47;;;1.90;99.90;;;;;;5045839;28;20916;-59
2023/01/19 02:44:08;;;;;;;28.50;9.60;;;1.90;99.90;;;;;;5071848;28;20568;-59
2023/01/19 02:46:35;;;;;;;39.40;16.47;;;1.90;99.90;;;;;;5064760;28;21036;-59
2023/01/19 02:49:01;;;;;;;33.87;17.67;;;1.90;99.90;;;;;;5065406;28;20490;-60
2023/01/19 02:51:29;;;;;;;43.77;14.77;;;;;;;;;;5056370;28;20490;-60
2023/01/19 02:54:06;;;;;;;41.83;14.43;;;;;;;;;;5074073;28;20929;-59
2023/01/19 02:56:56;;;;;;;47.37;19.00;;;2.00;99.90;;;;;;5063466;28;20481;-60
2023/01/19 02:59:38;;;;;;;22.27;9.17;;;2.00;99.90;;;;;;5070032;28;20883;-59
2023/01/19 03:02:18;;;;;;;27.23;13.33;;;2.00;99.90;;;;;;5072910;28;20481;-59
2023/01/19 03:04:55;;;;;;;38.07;14.17;;;;;;;;;;5060810;28;20862;-59
2023/01/19 03:07:34;;;;;;;32.77;18.93;;;2.00;99.90;;;;;;5056235;28;20763;-60
2023/01/19 03:10:07;;;;;;;28.90;13.53;;;2.00;99.90;;;;;;5045020;28;20973;-59
2023/01/19 03:12:42;;;;;;;50.97;20.07;;;2.10;99.90;;;;;;5074670;28;20473;-59
2023/01/19 03:15:15;;;;;;;22.50;11.83;;;2.20;99.90;;;;;;5074915;28;20485;-60
2023/01/19 03:17:43;;;;;;;36.67;11.90;;;;;;;;;;5050219;28;20715;-59
2023/01/19 03:20:12;;;;;;;31.43;16.60;;;2.10;99.90;;;;;;5069742;28;20577;-59
2023/01/19 03:22:39;;;;;;;45.43;22.03;;;2.00;99.90;;;;;;5084821;28;20548;-60
2023/01/19 03:25:07;;;;;;;29.93;15.20;;;2.00;99.90;;;;;;5071465;28;20478;-60
2023/01/19 03:27:40;;;;;;;46.57;18.17;;;2.10;99.90;;;;;;5075700;28;20486;-60
2023/01/19 03:30:10;;;;;;;38.83;13.40;;;2.20;99.90;;;;;;5061411;28;20476;-60
2023/01/19 03:32:42;;;;;;;38.53;19.10;;;2.10;99.90;;;;;;5064399;28;20562;-60
2023/01/19 03:35:12;;;;;;;26.50;12.60;;;2.30;99.90;;;;;;5078441;28;21025;-60
2023/01/19 03:37:42;;;;;;;44.77;15.90;;;2.30;99.90;;;;;;5058510;28;20493;-60
2023/01/19 03:40:11;;;;;;;30.57;13.83;;;2.30;99.90;;;;;;5071169;28;20489;-60
2023/01/19 03:42:42;;;;;;;41.63;16.00;;;2.30;99.90;;;;;;5057706;28;20475;-60
2023/01/19 03:45:09;;;;;;;25.43;10.70;;;;;;;;;;5058270;28;20506;-60
2023/01/19 03:47:36;;;;;;;38.67;13.20;;;2.40;99.90;;;;;;5052939;28;20488;-60
2023/01/19 03:50:06;;;;;;;21.20;9.40;;;;;;;;;;5078457;28;20974;-60
2023/01/19 03:52:33;;;;;;;58.40;19.93;;;2.40;99.90;;;;;;5072829;28;20532;-60
2023/01/19 03:55:01;;;;;;;26.93;11.97;;;2.50;99.90;;;;;;5058161;28;20483;-60
2023/01/19 03:57:27;;;;;;;37.57;16.50;;;2.50;99.90;;;;;;5063963;28;20473;-60
2023/01/19 03:59:55;;;;;;;19.57;7.40;;;2.50;99.90;;;;;;5063611;28;20479;-59
2023/01/19 04:02:22;;;;;;;32.17;14.17;;;2.50;99.90;;;;;;5066208;28;20886;-60
2023/01/19 04:04:49;;;;;;;31.13;13.07;;;2.40;99.90;;;;;;5054203;28;20489;-60
2023/01/19 04:07:16;;;;;;;44.10;16.70;;;2.30;99.90;;;;;;5083319;28;20496;-60
2023/01/19 04:09:43;;;;;;;37.63;15.33;;;;;;;;;;5066145;28;20488;-60
2023/01/19 04:12:10;;;;;;;26.40;9.77;;;2.30;99.90;;;;;;5054344;28;20527;-60
2023/01/19 04:14:37;;;;;;;35.80;15.93;;;2.30;99.90;;;;;;5078823;28;20856;-59
2023/01/19 04:17:05;;;;;;;29.07;12.63;;;2.20;99.90;;;;;;5069761;28;20470;-59
2023/01/19 04:19:32;;;;;;;44.23;15.60;;;2.20;99.90;;;;;;5071007;28;20883;-60
2023/01/19 04:22:00;;;;;;;41.83;16.63;;;;;;;;;;5059479;28;20494;-60
2023/01/19 04:24:27;;;;;;;39.27;17.47;;;2.00;99.90;;;;;;5081110;28;20573;-60
2023/01/19 04:26:54;;;;;;;45.93;15.37;;;1.90;99.90;;;;;;5048720;28;20588;-60
2023/01/19 04:29:20;;;;;;;35.30;18.03;;;1.80;99.90;;;;;;5087857;28;20484;-60
2023/01/19 04:31:47;;;;;;;41.30;18.93;;;1.80;99.90;;;;;;5065150;28;20479;-60
2023/01/19 04:34:16;;;;;;;24.77;11.60;;;;;;;;;;5043621;28;20486;-60
2023/01/19 04:36:44;;;;;;;35.27;15.03;;;;;;;;;;5084187;28;21202;-59
2023/01/19 04:39:11;;;;;;;32.60;13.60;;;;;;;;;;5052096;28;20479;-60
2023/01/19 04:41:38;;;;;;;41.27;14.40;;;2.00;99.90;;;;;;5081043;28;20919;-60
2023/01/19 04:44:05;;;;;;;33.60;15.80;;;2.00;99.90;;;;;;5081954;28;20486;-59
2023/01/19 04:46:32;;;;;;;51.33;19.60;;;2.00;99.90;;;;;;5049656;28;20489;-59
2023/01/19 04:48:59;;;;;;;23.70;12.50;;;;;;;;;;5070769;28;20533;-59
2023/01/19 04:51:27;;;;;;;32.23;12.83;;;1.90;99.90;;;;;;5063312;28;20586;-59
2023/01/19 04:53:54;;;;;;;24.73;11.10;;;2.00;99.90;;;;;;5059530;28;20573;-59
2023/01/19 04:56:21;;;;;;;25.23;9.73;;;2.00;99.90;;;;;;5077253;28;20497;-59
2023/01/19 04:58:47;;;;;;;28.37;12.83;;;2.00;99.90;;;;;;5058044;28;20483;-59
2023/01/19 05:01:14;;;;;;;30.53;12.80;;;2.00;99.90;;;;;;5053921;28;21095;-59
2023/01/19 05:03:41;;;;;;;42.80;15.83;;;2.10;99.90;;;;;;5066266;28;20501;-59
2023/01/19 05:06:08;;;;;;;35.47;16.60;;;2.00;99.90;;;;;;5045566;28;20483;-59
2023/01/19 05:08:36;;;;;;;39.80;17.30;;;;;;;;;;5086258;28;20491;-59
2023/01/19 05:11:03;;;;;;;44.07;15.80;;;2.00;99.90;;;;;;5049687;28;20807;-59
2023/01/19 05:13:30;;;;;;;42.40;13.27;;;2.00;99.90;;;;;;5050852;28;20492;-59
2023/01/19 05:15:56;;;;;;;35.00;12.20;;;2.10;99.90;;;;;;5080323;28;20856;-60
2023/01/19 05:18:23;;;;;;;32.53;14.27;;;1.90;99.90;;;;;;5065402;28;20486;-59
2023/01/19 05:20:50;;;;;;;40.30;16.40;;;2.00;99.90;;;;;;5090287;28;20487;-59
2023/01/19 05:23:17;;;;;;;35.57;18.40;;;2.00;99.90;;;;;;5051834;28;20776;-59
2023/01/19 05:25:45;;;;;;;43.43;19.73;;;1.90;99.90;;;;;;5073791;28;20486;-59
2023/01/19 05:28:11;;;;;;;20.57;9.87;;;1.90;99.90;;;;;;5052256;28;20496;-59
2023/01/19 05:30:38;;;;;;;40.93;13.10;;;1.90;99.90;;;;;;5037972;28;20491;-59
2023/01/19 05:33:05;;;;;;;48.63;16.30;;;1.90;99.90;;;;;;5084394;28;20475;-59
2023/01/19 05:35:32;;;;;;;58.60;21.83;;;2.00;99.90;;;;;;5053149;28;20483;-60
2023/01/19 05:37:59;;;;;;;34.50;14.20;;;;;;;;;;5052250;28;20478;-59
2023/01/19 05:40:25;;;;;;;44.30;18.53;;;1.90;99.90;;;;;;5070567;28;20492;-60
2023/01/19 05:42:53;;;;;;;42.47;17.37;;;1.90;99.90;;;;;;5058342;28;20750;-59
2023/01/19 05:45:20;;;;;;;50.43;19.63;;;1.90;99.90;;;;;;5081664;28;21005;-60
2023/01/19 05:47:47;;;;;;;34.50;13.50;;;2.00;99.90;;;;;;5073934;28;20997;-60
2023/01/19 05:50:13;;;;;;;34.03;16.27;;;2.00;99.90;;;;;;5047806;28;20922;-59
2023/01/19 05:52:40;;;;;;;54.57;20.60;;;2.00;99.90;;;;;;5083408;28;20957;-60
2023/01/19 05:55:08;;;;;;;42.87;17.77;;;2.00;99.90;;;;;;5049682;28;21109;-60
2023/01/19 05:57:34;;;;;;;62.63;25.10;;;1.90;99.90;;;;;;5047170;28;20497;-59
2023/01/19 06:00:04;;;;;;;45.27;22.10;;;1.80;99.90;;;;;;5076789;28;21142;-59
2023/01/19 06:02:31;;;;;;;44.70;18.60;;;1.90;99.90;;;;;;5054866;28;20936;-59
2023/01/19 06:04:57;;;;;;;38.47;13.47;;;2.10;99.90;;;;;;5067745;28;20492;-59
2023/01/19 06:07:24;;;;;;;32.47;11.53;;;2.20;99.90;;;;;;5065849;28;20484;-60
2023/01/19 06:09:51;;;;;;;50.57;13.87;;;2.20;99.90;;;;;;5055808;28;20482;-59
2023/01/19 06:12:18;;;;;;;36.43;13.70;;;2.20;99.90;;;;;;5078678;28;20474;-60
2023/01/19 06:14:45;;;;;;;47.80;16.93;;;2.30;99.90;;;;;;5067593;28;20824;-60
2023/01/19 06:17:13;;;;;;;30.63;11.13;;;2.30;99.90;;;;;;5067709;28;20489;-59
2023/01/19 06:19:40;;;;;;;55.60;20.57;;;2.20;99.90;;;;;;5049923;28;20521;-60
2023/01/19 06:22:07;;;;;;;31.13;12.90;;;2.30;99.90;;;;;;5088895;28;20482;-59
2023/01/19 06:24:34;;;;;;;52.23;18.60;;;2.20;99.90;;;;;;5059541;28;22014;-60
2023/01/19 06:27:01;;;;;;;31.93;12.93;;;2.30;99.90;;;;;;5071909;28;20486;-60
2023/01/19 06:29:28;;;;;;;40.87;15.20;;;5.30;99.90;;;;;;5058402;28;20475;-59
2023/01/19 06:31:55;;;;;;;41.73;14.47;;;2.30;99.90;;;;;;5063211;28;20473;-60
2023/01/19 06:34:27;;;;;;;45.53;18.83;;;2.20;99.90;;;;;;5072516;28;20918;-59
2023/01/19 06:36:54;;;;;;;45.37;19.50;;;2.20;99.90;;;;;;5072562;28;20837;-59
2023/01/19 06:39:20;;;;;;;46.73;17.03;;;2.20;99.90;;;;;;5052421;28;20495;-59
2023/01/19 06:41:47;;;;;;;29.27;9.93;;;2.30;99.90;;;;;;5063673;28;20915;-59
2023/01/19 06:44:14;;;;;;;41.47;19.50;;;2.10;99.90;;;;;;5074619;28;20483;-60
2023/01/19 06:46:41;;;;;;;57.73;19.67;;;2.10;99.90;;;;;;5036283;28;21017;-59
2023/01/19 06:49:07;;;;;;;40.43;15.47;;;2.10;99.90;;;;;;5060265;28;20493;-59
2023/01/19 06:51:36;;;;;;;46.93;18.70;;;;;;;;;;5065228;28;20482;-59
2023/01/19 06:54:04;;;;;;;40.33;16.47;;;;;;;;;;5060911;28;20531;-59
2023/01/19 06:56:30;;;;;;;47.47;16.10;;;2.10;99.90;;;;;;5079401;28;20487;-59
2023/01/19 06:58:57;;;;;;;44.57;14.67;;;2.10;99.90;;;;;;5056346;28;20517;-59
2023/01/19 07:01:24;;;;;;;40.07;11.93;;;2.10;99.90;;;;;;5074491;28;20504;-60
2023/01/19 07:03:51;;;;;;;47.30;17.63;;;2.10;99.90;;;;;;5053589;28;21301;-59
2023/01/19 07:06:17;;;;;;;66.63;21.57;;;2.20;99.90;;;;;;5079851;28;20812;-58
2023/01/19 07:08:45;;;;;;;49.03;16.40;;;2.20;99.90;;;;;;5072854;28;20481;-59
2023/01/19 07:11:12;;;;;;;32.23;13.20;;;2.20;99.90;;;;;;5067637;28;20468;-59
2023/01/19 07:13:40;;;;;;;46.20;17.33;;;2.30;99.90;;;;;;5067587;28;20486;-59
2023/01/19 07:16:09;;;;;;;44.63;17.10;;;2.30;99.90;;;;;;5049832;28;20469;-59
2023/01/19 07:18:36;;;;;;;51.43;17.40;;;;;;;;;;5057486;28;20486;-59
2023/01/19 07:21:03;;;;;;;54.10;14.33;;;;;;;;;;5074317;28;20486;-59
2023/01/19 07:23:30;;;;;;;45.80;13.50;;;2.40;99.90;;;;;;5081742;28;20474;-59
2023/01/19 07:26:00;;;;;;;31.17;15.10;;;2.40;99.90;;;;;;5057470;28;21064;-59
2023/01/19 07:28:27;;;;;;;44.37;16.50;;;2.50;99.90;;;;;;5052720;28;20482;-59
2023/01/19 07:30:55;;;;;;;41.17;17.60;;;2.40;99.90;;;;;;5081922;28;20492;-59
2023/01/19 07:33:22;;;;;;;29.30;11.97;;;2.40;99.90;;;;;;5073291;28;20481;-59
2023/01/19 07:35:49;;;;;;;35.97;15.60;;;2.40;99.90;;;;;;5045961;28;20482;-59
2023/01/19 07:38:17;;;;;;;34.23;14.43;;;;;;;;;;5068864;28;20475;-60
2023/01/19 07:40:45;;;;;;;46.13;16.67;;;2.60;99.90;;;;;;5036517;28;20491;-60
2023/01/19 07:43:14;;;;;;;42.57;12.90;;;2.60;99.90;;;;;;5039777;28;20590;-60
2023/01/19 07:45:41;;;;;;;43.70;15.60;;;2.60;99.90;;;;;;5044933;28;20484;-60
2023/01/19 07:48:08;;;;;;;41.30;13.20;;;2.70;99.90;;;;;;5065838;28;20477;-60
2023/01/19 07:50:34;;;;;;;55.63;18.23;;;2.70;99.90;;;;;;5085040;28;21245;-60
2023/01/19 07:53:05;;;;;;;46.43;14.83;;;2.80;99.90;;;;;;5042279;28;20471;-60
2023/01/19 07:55:32;;;;;;;59.77;17.83;;;2.80;99.90;;;;;;5048130;28;20841;-59
2023/01/19 07:57:59;;;;;;;53.37;17.03;;;;;;;;;;5074869;28;20488;-60
2023/01/19 08:00:27;;;;;;;66.13;16.00;;;2.90;99.90;;;;;;5049965;28;20482;-60
2023/01/19 08:02:59;;;;;;;59.33;16.27;;;2.90;99.90;;;;;;5051633;28;20843;-59
2023/01/19 08:05:27;;;;;;;57.60;15.77;;;2.90;99.90;;;;;;5068352;28;20485;-60
2023/01/19 08:07:55;;;;;;;41.53;12.10;;;2.90;99.90;;;;;;5051004;28;20491;-59
2023/01/19 08:10:24;;;;;;;44.30;13.90;;;2.80;99.90;;;;;;5077296;28;20948;-59
2023/01/19 08:12:51;;;;;;;46.03;13.13;;;2.90;99.90;;;;;;5053190;28;20473;-60
2023/01/19 08:15:18;;;;;;;21.40;8.90;;;2.80;99.90;;;;;;5071091;28;20510;-59
2023/01/19 08:17:46;;;;;;;58.33;15.77;;;2.80;99.90;;;;;;5070668;28;20573;-60
2023/01/19 08:20:14;;;;;;;24.33;12.70;;;2.80;99.90;;;;;;5047507;28;20860;-60
2023/01/19 08:22:40;;;;;;;34.40;14.90;;;2.80;99.90;;;;;;5068733;28;21296;-60
2023/01/19 08:25:07;;;;;;;34.50;16.10;;;2.90;99.90;;;;;;5047015;28;21005;-59
2023/01/19 08:27:34;;;;;;;55.57;22.90;;;2.70;99.90;;;;;;5071883;28;20492;-60
2023/01/19 08:30:01;;;;;;;39.93;20.47;;;2.50;99.90;;;;;;5077721;28;20473;-59
2023/01/19 08:32:28;;;;;;;44.17;14.50;;;2.70;99.90;;;;;;5053885;28;20476;-59
2023/01/19 08:34:56;;;;;;;48.23;13.70;;;;;;;;;;5068318;28;20490;-59
2023/01/19 08:37:23;;;;;;;51.97;14.80;;;2.70;99.90;;;;;;5059838;28;20477;-59
2023/01/19 08:39:52;;;;;;;60.93;18.70;;;2.80;99.90;;;;;;5074999;28;20994;-60
2023/01/19 08:42:19;;;;;;;52.50;16.57;;;2.80;99.90;;;;;;5043133;28;20581;-59
2023/01/19 08:44:45;;;;;;;49.33;15.37;;;2.80;99.90;;;;;;5046689;28;20476;-60
2023/01/19 08:47:12;;;;;;;56.07;20.63;;;;;;;;;;5052061;28;20478;-59
2023/01/19 08:49:40;;;;;;;63.00;20.60;;;2.80;99.90;;;;;;5049500;28;20486;-59
2023/01/19 08:52:08;;;;;;;52.27;18.63;;;2.90;99.90;;;;;;5054886;28;20470;-59
2023/01/19 08:54:35;;;;;;;55.13;18.37;;;;;;;;;;5070180;28;20482;-59
2023/01/19 08:57:02;;;;;;;49.13;17.37;;;;;;;;;;5073940;28;20481;-60
2023/01/19 08:59:29;;;;;;;68.07;22.50;;;;;;;;;;5038670;28;20850;-60
2023/01/19 09:01:55;;;;;;;63.63;19.67;;;2.90;99.90;;;;;;5065968;28;20487;-60
2023/01/19 09:04:24;;;;;;;47.83;15.47;;;2.90;99.90;;;;;;5068284;28;21290;-60
2023/01/19 09:06:50;;;;;;;45.93;15.87;;;2.80;99.90;;;;;;5073268;28;20501;-59
2023/01/19 09:09:19;;;;;;;38.43;15.27;;;;;;;;;;5053042;28;21018;-60
2023/01/19 09:11:46;;;;;;;71.67;18.50;;;;;;;;;;5060986;28;20481;-59
2023/01/19 09:14:13;;;;;;;48.60;16.93;;;2.80;99.90;;;;;;5082018;28;20692;-59
2023/01/19 09:16:39;;;;;;;89.77;19.53;;;2.80;99.90;;;;;;5061606;28;20483;-60
2023/01/19 09:19:07;;;;;;;34.53;14.80;;;2.80;99.90;;;;;;5046559;28;20491;-59
2023/01/19 09:21:34;;;;;;;55.87;18.17;;;2.80;99.90;;;;;;5050013;28;20520;-59
2023/01/19 09:24:00;;;;;;;56.50;18.20;;;2.80;99.90;;;;;;5076705;28;20496;-59
2023/01/19 09:26:28;;;;;;;52.07;16.67;;;2.90;99.90;;;;;;5063682;28;20549;-59
2023/01/19 09:28:55;;;;;;;39.97;12.30;;;2.90;99.90;;;;;;5065834;28;20657;-59
2023/01/19 09:31:22;;;;;;;42.67;17.23;;;3.00;99.90;;;;;;5059604;28;20661;-59
2023/01/19 09:33:49;;;;;;;47.27;18.40;;;2.90;99.90;;;;;;5074862;28;20998;-60
2023/01/19 09:36:16;;;;;;;38.67;15.27;;;;;;;;;;5059552;28;20481;-60
2023/01/19 09:38:42;;;;;;;46.57;15.70;;;3.20;99.90;;;;;;5077150;28;20987;-60
2023/01/19 09:41:19;;;;;;;45.87;14.40;;;3.20;99.90;;;;;;5057163;28;20487;-60
2023/01/19 09:43:51;;;;;;;57.63;22.40;;;3.00;99.90;;;;;;5055700;28;20508;-60
2023/01/19 09:46:23;;;;;;;44.00;15.73;;;3.20;99.90;;;;;;5056003;28;20693;-60
2023/01/19 09:48:51;;;;;;;52.47;17.50;;;;;;;;;;5050396;28;20486;-60
2023/01/19 09:51:21;;;;;;;45.57;18.37;;;3.20;99.90;;;;;;5067133;28;20491;-60
2023/01/19 09:54:06;;;;;;;38.03;15.60;;;;;;;;;;5048546;28;20487;-60
2023/01/19 09:56:33;;;;;;;52.83;17.77;;;3.20;99.90;;;;;;5051093;28;20467;-60
2023/01/19 09:59:06;;;;;;;40.20;12.73;;;3.30;99.90;;;;;;5066258;28;20473;-60
2023/01/19 10:01:38;;;;;;;55.77;18.80;;;3.30;99.90;;;;;;5076651;28;20492;-60
2023/01/19 10:04:33;;;;;;;64.20;19.90;;;3.20;99.90;;;;;;5049594;28;20780;-60
2023/01/19 10:07:09;;;;;;;38.37;15.00;;;3.20;99.90;;;;;;5030930;28;20486;-60
2023/01/19 10:09:46;;;;;;;54.23;17.00;;;3.30;99.90;;;;;;5054219;28;20824;-60
2023/01/19 10:12:19;;;;;;;40.77;17.07;;;;;;;;;;5053927;28;20487;-60
2023/01/19 10:14:54;;;;;;;42.60;14.43;;;;;;;;;;5062350;28;20483;-60
2023/01/19 10:17:32;;;;;;;32.10;10.13;;;3.40;99.90;;;;;;5052976;28;20475;-61
2023/01/19 10:20:02;;;;;;;36.93;15.37;;;3.50;99.90;;;;;;5047951;28;20846;-60
2023/01/19 10:22:29;;;;;;;35.03;11.90;;;3.60;99.90;;;;;;5061861;28;20810;-60
2023/01/19 10:24:59;;;;;;;41.53;11.00;;;3.50;99.90;;;;;;5069354;28;20478;-60
2023/01/19 10:27:29;;;;;;;44.10;12.00;;;3.60;99.90;;;;;;5054990;28;20478;-60
2023/01/19 10:29:57;;;;;;;56.07;11.47;;;3.60;99.90;;;;;;5034413;28;20731;-60
2023/01/19 10:32:27;;;;;;;30.90;10.17;;;3.60;99.90;;;;;;5076873;28;20481;-60
2023/01/19 10:34:56;;;;;;;37.43;12.27;;;;;;;;;;5037970;28;20998;-60
2023/01/19 10:37:29;;;;;;;45.57;14.40;;;3.60;99.90;;;;;;5065660;28;20490;-60
2023/01/19 10:39:59;;;;;;;39.23;13.43;;;3.50;99.90;;;;;;5053311;28;20896;-60
2023/01/19 10:42:29;;;;;;;71.53;18.10;;;3.50;99.90;;;;;;5072249;28;20503;-60
2023/01/19 10:44:57;;;;;;;43.13;14.10;;;4.40;99.90;;;;;;5071615;28;20568;-60
2023/01/19 10:47:34;;;;;;;37.13;13.60;;;3.40;99.90;;;;;;5038465;28;20547;-60
2023/01/19 10:50:03;;;;;;;48.93;14.20;;;;;;;;;;5054359;28;20799;-60
2023/01/19 10:52:34;;;;;;;62.47;16.57;;;3.40;99.90;;;;;;5057239;28;20489;-60
2023/01/19 10:55:02;;;;;;;40.93;11.37;;;3.30;99.90;;;;;;5070374;28;20494;-60
2023/01/19 10:57:32;;;;;;;49.43;13.03;;;3.40;99.90;;;;;;5056370;28;20959;-60
2023/01/19 11:00:00;;;;;;;44.20;12.57;;;3.30;99.90;;;;;;5082577;28;20497;-59
2023/01/19 11:02:29;;;;;;;54.53;13.00;;;3.30;99.90;;;;;;5047419;28;20490;-60
2023/01/19 11:04:57;;;;;;;37.80;11.87;;;3.40;99.90;;;;;;5078110;28;20484;-60
2023/01/19 11:07:28;;;;;;;44.70;14.50;;;3.20;99.90;;;;;;5056345;28;20787;-60
2023/01/19 11:10:10;;;;;;;33.90;11.20;;;;;;;;;;5051388;28;20485;-60
2023/01/19 11:12:41;;;;;;;48.53;8.97;;;3.30;99.90;;;;;;5069856;28;20475;-60
2023/01/19 11:15:14;;;;;;;36.30;9.77;;;;;;;;;;5048774;28;20541;-60
2023/01/19 11:17:46;;;;;;;50.23;13.03;;;3.30;99.90;;;;;;5047399;28;20483;-60
2023/01/19 11:20:20;;;;;;;34.57;10.90;;;;;;;;;;5067011;28;20762;-60
2023/01/19 11:22:47;;;;;;;42.73;8.10;;;3.30;99.90;;;;;;5055385;28;20566;-60
2023/01/19 11:25:31;;;;;;;43.07;11.63;;;3.40;99.90;;;;;;5048637;28;20485;-60
2023/01/19 11:27:58;;;;;;;41.73;12.67;;;3.40;99.90;;;;;;5067604;28;20950;-59
2023/01/19 11:30:27;;;;;;;39.67;11.60;;;3.40;99.90;;;;;;5054342;28;20499;-60
2023/01/19 11:32:55;;;;;;;35.27;11.93;;;4.70;99.90;;;;;;5064920;28;20476;-60
2023/01/19 11:35:37;;;;;;;50.17;13.17;;;3.50;99.90;;;;;;5064831;28;21046;-60
2023/01/19 11:38:18;;;;;;;29.67;13.20;;;3.40;99.90;;;;;;5040674;28;20472;-60
2023/01/19 11:40:52;;;;;;;26.73;10.27;;;3.40;99.90;;;;;;5055621;28;21629;-60
2023/01/19 11:43:20;;;;;;;27.03;9.50;;;3.70;99.90;;;;;;5059005;28;21121;-60
2023/01/19 11:45:48;;;;;;;22.80;10.60;;;3.90;99.90;;;;;;5074560;28;20864;-60
2023/01/19 11:48:19;;;;;;;28.97;7.43;;;;;;;;;;5057149;28;20477;-60
2023/01/19 11:50:46;;;;;;;27.70;9.00;;;;;;;;;;5048194;28;20481;-60
2023/01/19 11:53:18;;;;;;;21.67;7.87;;;4.00;99.90;;;;;;5062238;28;21175;-60
2023/01/19 11:55:49;;;;;;;28.67;8.27;;;;;;;;;;5048855;28;21325;-59
2023/01/19 11:58:17;;;;;;;19.60;10.50;;;4.20;99.90;;;;;;5078450;28;20576;-60
2023/01/19 12:00:46;;;;;;;28.47;11.73;;;;;;;;;;5057681;28;20494;-60
2023/01/19 12:03:18;;;;;;;36.00;11.73;;;;;;;;;;5077394;28;20494;-60
2023/01/19 12:05:48;;;;;;;31.90;11.27;;;4.50;99.60;;;;;;5062970;28;20481;-60
2023/01/19 12:08:20;;;;;;;24.40;7.43;;;4.60;99.80;;;;;;5073802;28;20485;-60
2023/01/19 12:10:49;;;;;;;26.17;9.53;;;4.70;99.50;;;;;;5051922;28;21069;-60
2023/01/19 12:13:22;;;;;;;32.40;8.33;;;5.00;99.80;;;;;;5050242;28;20479;-60
2023/01/19 12:15:53;;;;;;;23.63;8.13;;;5.10;99.50;;;;;;5065277;28;20477;-60
2023/01/19 12:18:35;;;;;;;22.93;8.90;;;5.00;98.70;;;;;;5028079;28;20484;-60
2023/01/19 12:21:02;;;;;;;33.40;9.60;;;5.10;98.90;;;;;;5048875;28;21021;-59
2023/01/19 12:23:47;;;;;;;18.63;8.33;;;5.10;98.70;;;;;;5060263;28;20471;-60
2023/01/19 12:26:26;;;;;;;31.50;10.03;;;;;;;;;;5076341;27;20777;-59
2023/01/19 12:28:56;;;;;;;19.60;7.20;;;;;;;;;;5071896;28;20478;-60
2023/01/19 12:31:23;;;;;;;27.47;9.23;;;5.20;98.40;;;;;;5071388;28;20496;-60
2023/01/19 12:33:52;;;;;;;19.43;8.03;;;5.20;98.30;;;;;;5071656;28;20485;-60
2023/01/19 12:36:38;;;;;;;29.87;11.83;;;5.10;98.70;;;;;;5063971;28;20482;-60
2023/01/19 12:39:12;;;;;;;20.27;7.67;;;5.10;98.80;;;;;;5047243;28;20479;-60
2023/01/19 12:41:40;;;;;;;24.53;7.97;;;5.10;98.80;;;;;;5068789;28;20528;-59
2023/01/19 12:44:32;;;;;;;25.13;8.87;;;5.00;98.50;;;;;;5055738;28;20485;-60
2023/01/19 12:47:05;;;;;;;25.20;9.00;;;5.00;98.20;;;;;;5042316;28;20483;-60
2023/01/19 12:49:39;;;;;;;31.37;11.33;;;4.90;98.60;;;;;;5086749;28;20485;-60
2023/01/19 12:52:29;;;;;;;24.23;7.93;;;4.80;98.80;;;;;;5065000;28;20475;-60
2023/01/19 12:55:20;;;;;;;22.50;8.37;;;4.70;98.60;;;;;;5043820;28;20532;-61
2023/01/19 12:57:49;;;;;;;25.13;8.80;;;;;;;;;;5039033;28;20478;-61
2023/01/19 13:00:30;;;;;;;30.60;8.53;;;4.80;98.80;;;;;;5055735;28;20488;-60
2023/01/19 13:02:58;;;;;;;23.63;8.23;;;4.90;99.20;;;;;;5054832;28;20475;-60
2023/01/19 13:05:50;;;;;;;23.13;8.93;;;4.80;98.60;;;;;;5051226;28;20483;-60
2023/01/19 13:08:21;;;;;;;23.30;7.50;;;4.90;98.60;;;;;;5071347;28;20476;-60
2023/01/19 13:11:15;;;;;;;19.63;6.60;;;4.80;98.60;;;;;;5065067;28;20485;-61
2023/01/19 13:13:43;;;;;;;24.37;10.63;;;4.80;98.60;;;;;;5067738;28;20505;-61
2023/01/19 13:16:59;;;;;;;24.13;7.67;;;4.70;98.30;;;;;;5077922;28;20492;-61